Time;durP1;ratioP1;P1;durP2;ratioP2;P2;SDS_P1;SDS_P2;PMS_P1;PMS_P2;Temp;Humidity;BMP_temperature;BMP_pressure;BME280_temperature;BME280_humidity;BME280_pressure;Samples;Min_cycle;Max_cycle;Signal;HPM_P1;HPM_P2
2022/09/15 00:00:15;;;;;;;3.72;2.70;;;;;;;;;;5017854;28;20040;-81
2022/09/15 00:02:42;;;;;;;3.80;2.58;;;;;;;;;;5018229;28;20083;-81
2022/09/15 00:05:07;;;;;;;3.17;2.25;;;;;;;;;;5017196;28;20094;-81
2022/09/15 00:07:33;;;;;;;2.97;2.13;;;;;;;;;;5017472;28;20502;-81
2022/09/15 00:09:58;;;;;;;5.15;2.35;;;;;;;;;;5033825;28;20052;-82
2022/09/15 00:12:24;;;;;;;4.07;2.22;;;;;;;;;;5017598;28;20128;-81
2022/09/15 00:14:49;;;;;;;2.92;2.20;;;;;;;;;;5017749;28;20388;-81
2022/09/15 00:17:14;;;;;;;3.22;2.03;;;;;;;;;;5033992;28;20514;-81
2022/09/15 00:19:40;;;;;;;2.75;1.67;;;;;;;;;;5034298;28;20403;-81
2022/09/15 00:22:05;;;;;;;3.30;2.13;;;;;;;;;;5033556;28;20072;-81
2022/09/15 00:24:31;;;;;;;3.53;1.83;;;;;;;;;;5034246;28;20411;-81
2022/09/15 00:26:57;;;;;;;4.53;2.00;;;;;;;;;;5017558;28;20037;-82
2022/09/15 00:29:22;;;;;;;4.00;1.88;;;;;;;;;;5034055;28;20417;-81
2022/09/15 00:31:47;;;;;;;3.53;2.00;;;;;;;;;;5050322;28;20441;-81
2022/09/15 00:34:13;;;;;;;4.88;1.83;;;;;;;;;;5020798;28;20045;-81
2022/09/15 00:36:38;;;;;;;2.85;2.13;;;;;;;;;;5020279;28;20043;-82
2022/09/15 00:39:04;;;;;;;3.28;2.10;;;;;;;;;;5037303;28;20143;-81
2022/09/15 00:41:29;;;;;;;2.22;1.55;;;;;;;;;;5020781;28;20473;-81
2022/09/15 00:44:00;;;;;;;3.60;2.15;;;;;;;;;;5004082;28;20047;-81
2022/09/15 00:46:34;;;;;;;3.25;1.60;;;;;;;;;;5019827;28;20064;-82
2022/09/15 00:49:02;;;;;;;3.15;1.77;;;;;;;;;;5021601;28;20102;-80
2022/09/15 00:51:44;;;;;;;3.83;1.63;;;;;;;;;;5036771;28;20509;-81
2022/09/15 00:54:18;;;;;;;2.90;2.00;;;;;;;;;;5020799;28;20091;-81
2022/09/15 00:56:44;;;;;;;2.75;1.70;;;;;;;;;;5005166;28;20032;-81
2022/09/15 00:59:14;;;;;;;3.63;1.67;;;;;;;;;;5004068;28;20458;-81
2022/09/15 01:01:39;;;;;;;3.22;2.10;;;;;;;;;;5020393;28;20032;-81
2022/09/15 01:04:05;;;;;;;2.38;1.70;;;;;;;;;;5020063;28;20047;-81
2022/09/15 01:06:32;;;;;;;5.53;1.70;;;;;;;;;;5036505;28;20048;-81
2022/09/15 01:09:05;;;;;;;2.90;1.52;;;;;;;;;;5053404;28;20075;-81
2022/09/15 01:11:30;;;;;;;2.85;1.73;;;;;;;;;;5004403;28;20037;-81
2022/09/15 01:13:56;;;;;;;3.78;1.98;;;;;;;;;;5036520;28;20098;-81
2022/09/15 01:16:43;;;;;;;2.25;1.55;;;;;;;;;;5037089;28;20048;-81
2022/09/15 01:19:34;;;;;;;2.40;1.42;;;;;;;;;;5075262;28;20036;-81
2022/09/15 01:22:26;;;;;;;2.22;1.60;;;;;;;;;;5057375;28;20043;-81
2022/09/15 01:25:03;;;;;;;2.20;1.52;;;;;;;;;;5042276;28;20514;-81
2022/09/15 01:27:50;;;;;;;3.13;1.77;;;;;;;;;;5057304;28;20047;-81
2022/09/15 01:30:20;;;;;;;2.63;1.35;;;;;;;;;;5056927;28;20040;-81
2022/09/15 01:33:04;;;;;;;2.40;1.42;;;;;;;;;;5007517;28;20093;-81
2022/09/15 01:35:35;;;;;;;2.40;1.75;;;;;;;;;;5056734;28;20044;-81
2022/09/15 01:38:22;;;;;;;2.17;1.27;;;;;;;;;;5036466;28;20473;-80
2022/09/15 01:41:26;;;;;;;3.72;1.42;;;;;;;;;;5037055;28;20040;-81
2022/09/15 01:44:01;;;;;;;2.60;1.60;;;;;;;;;;5053341;28;20048;-81
2022/09/15 01:46:28;;;;;;;2.25;1.83;;;;;;;;;;5020681;28;20033;-81
2022/09/15 01:48:54;;;;;;;4.68;1.70;;;;;;;;;;5003815;28;20538;-81
2022/09/15 01:51:20;;;;;;;2.22;1.60;;;;;;;;;;5003881;28;20037;-81
2022/09/15 01:53:45;;;;;;;2.70;1.35;;;;;;;;;;5004100;28;20114;-81
2022/09/15 01:56:11;;;;;;;4.43;1.70;;;;;;;;;;5003583;28;20036;-81
2022/09/15 01:58:37;;;;;;;3.65;1.90;;;;;;;;;;5020339;28;20059;-81
2022/09/15 02:01:07;;;;;;;2.30;1.52;;;;;;;;;;5003748;28;20044;-81
2022/09/15 02:03:38;;;;;;;2.13;1.58;;;;;;;;;;5004112;28;20037;-81
2022/09/15 02:06:07;;;;;;;2.28;1.60;;;;;;;;;;5004067;28;20037;-81
2022/09/15 02:09:01;;;;;;;3.80;1.70;;;;;;;;;;5003614;28;20044;-81
2022/09/15 02:11:27;;;;;;;2.58;1.33;;;;;;;;;;5017625;28;20124;-81
2022/09/15 02:14:16;;;;;;;3.72;2.10;;;;;;;;;;5019718;28;20052;-81
2022/09/15 02:16:42;;;;;;;2.85;1.83;;;;;;;;;;5023027;28;20044;-81
2022/09/15 02:19:18;;;;;;;2.50;1.50;;;;;;;;;;5003348;28;20106;-81
2022/09/15 02:21:52;;;;;;;2.35;1.67;;;;;;;;;;5003917;28;20033;-81
2022/09/15 02:24:28;;;;;;;3.00;1.83;;;;;;;;;;5004526;28;20037;-81
2022/09/15 02:26:54;;;;;;;2.95;1.65;;;;;;;;;;5003519;28;20036;-81
2022/09/15 02:29:20;;;;;;;3.40;1.42;;;;;;;;;;5001930;28;20120;-81
2022/09/15 02:31:45;;;;;;;2.72;1.63;;;;;;;;;;5019193;28;20055;-81
2022/09/15 02:34:14;;;;;;;2.95;2.00;;;;;;;;;;4994273;28;20123;-81
2022/09/15 02:36:40;;;;;;;2.90;1.70;;;;;;;;;;5038449;28;20400;-81
2022/09/15 02:39:10;;;;;;;3.17;1.90;;;;;;;;;;5038969;28;20051;-81
2022/09/15 02:41:36;;;;;;;3.92;1.65;;;;;;;;;;5006455;28;20514;-81
2022/09/15 02:44:02;;;;;;;4.40;1.90;;;;;;;;;;5038961;28;20049;-81
2022/09/15 02:46:28;;;;;;;3.15;1.92;;;;;;;;;;5055884;28;20036;-81
2022/09/15 02:48:53;;;;;;;2.65;2.08;;;;;;;;;;5039400;28;20041;-81
2022/09/15 02:51:19;;;;;;;2.28;1.70;;;;;;;;;;5055366;28;20036;-81
2022/09/15 02:53:45;;;;;;;2.80;2.15;;;;;;;;;;5038881;28;20400;-81
2022/09/15 02:56:10;;;;;;;4.13;1.77;;;;;;;;;;5038964;28;20040;-81
2022/09/15 02:58:36;;;;;;;3.85;2.17;;;;;;;;;;5038411;28;20032;-81
2022/09/15 03:01:03;;;;;;;3.50;2.20;;;;;;;;;;5022451;28;20028;-81
2022/09/15 03:03:28;;;;;;;4.38;2.42;;;;;;;;;;5022290;28;20547;-81
2022/09/15 03:06:15;;;;;;;3.83;2.10;;;;;;;;;;5038805;28;20119;-81
2022/09/15 03:08:47;;;;;;;2.67;2.13;;;;;;;;;;5024245;28;20111;-81
2022/09/15 03:11:13;;;;;;;3.47;2.63;;;;;;;;;;5038458;28;20124;-81
2022/09/15 03:13:38;;;;;;;4.28;2.58;;;;;;;;;;5038358;28;20075;-80
2022/09/15 03:16:11;;;;;;;3.80;2.25;;;;;;;;;;5055099;28;20033;-81
2022/09/15 03:18:37;;;;;;;4.20;2.58;;;;;;;;;;5038194;28;20024;-81
2022/09/15 03:21:04;;;;;;;3.60;2.47;;;;;;;;;;5039013;28;20052;-81
2022/09/15 03:23:29;;;;;;;4.53;2.90;;;;;;;;;;5022026;28;20078;-81
2022/09/15 03:25:55;;;;;;;4.38;3.28;;;;;;;;;;5021596;28;20549;-80
2022/09/15 03:28:20;;;;;;;4.15;3.15;;;;;;;;;;5025418;28;20407;-81
2022/09/15 03:30:46;;;;;;;5.20;3.35;;;;;;;;;;5021885;28;20120;-81
2022/09/15 03:33:12;;;;;;;5.45;3.90;;;;;;;;;;5022006;28;20032;-81
2022/09/15 03:35:37;;;;;;;5.72;3.60;;;;;;;;;;5038036;28;20044;-80
2022/09/15 03:38:03;;;;;;;6.50;3.90;;;;;;;;;;5001265;28;20409;-81
2022/09/15 03:40:29;;;;;;;4.65;3.50;;;;;;;;;;5050579;28;20460;-81
2022/09/15 03:42:54;;;;;;;4.97;3.65;;;;;;;;;;5048409;28;20043;-81
2022/09/15 03:45:20;;;;;;;5.40;3.40;;;;;;;;;;5021897;28;20067;-81
2022/09/15 03:47:47;;;;;;;6.03;4.10;;;;;;;;;;5005573;28;20040;-81
2022/09/15 03:50:12;;;;;;;4.75;3.47;;;;;;;;;;5037645;28;20375;-81
2022/09/15 03:52:38;;;;;;;4.72;3.85;;;;;;;;;;5037745;28;20560;-81
2022/09/15 03:55:03;;;;;;;4.97;3.72;;;;;;;;;;5037387;28;20040;-81
2022/09/15 03:57:30;;;;;;;5.57;4.00;;;;;;;;;;5021071;28;20430;-81
2022/09/15 03:59:55;;;;;;;5.25;4.15;;;;;;;;;;5021081;28;20028;-81
2022/09/15 04:02:21;;;;;;;5.10;4.13;;;;;;;;;;5021202;28;20421;-81
2022/09/15 04:04:46;;;;;;;4.45;3.95;;;;;;;;;;5004588;28;20039;-81
2022/09/15 04:07:11;;;;;;;6.15;4.15;;;;;;;;;;5036993;28;20044;-81
2022/09/15 04:09:37;;;;;;;5.97;4.10;;;;;;;;;;5037001;28;20468;-81
2022/09/15 04:12:03;;;;;;;5.53;4.20;;;;;;;;;;5004196;28;20037;-81
2022/09/15 04:14:28;;;;;;;5.68;3.83;;;;;;;;;;5021085;28;20028;-81
2022/09/15 04:16:54;;;;;;;5.97;4.18;;;;;;;;;;5020868;28;20048;-81
2022/09/15 04:19:19;;;;;;;5.32;4.45;;;;;;;;;;5037153;28;20040;-81
2022/09/15 04:21:46;;;;;;;5.45;4.20;;;;;;;;;;5036890;28;20032;-81
2022/09/15 04:24:12;;;;;;;6.20;4.00;;;;;;;;;;5037540;28;20079;-81
2022/09/15 04:26:37;;;;;;;4.78;3.80;;;;;;;;;;5037353;28;20513;-81
2022/09/15 04:29:04;;;;;;;6.95;4.55;;;;;;;;;;5037079;28;20040;-81
2022/09/15 04:31:29;;;;;;;5.55;4.72;;;;;;;;;;5028404;28;20099;-81
2022/09/15 04:33:55;;;;;;;7.32;4.50;;;;;;;;;;5017196;28;20037;-81
2022/09/15 04:36:22;;;;;;;5.80;4.32;;;;;;;;;;5001270;28;20578;-81
2022/09/15 04:38:48;;;;;;;5.70;4.35;;;;;;;;;;5020139;28;20062;-81
2022/09/15 04:41:13;;;;;;;5.53;4.15;;;;;;;;;;5004193;28;20032;-81
2022/09/15 04:43:39;;;;;;;5.55;3.50;;;;;;;;;;5017124;28;20522;-81
2022/09/15 04:46:05;;;;;;;6.18;4.38;;;;;;;;;;5017212;28;20041;-81
2022/09/15 04:48:30;;;;;;;6.60;4.45;;;;;;;;;;4984615;28;20396;-81
2022/09/15 04:51:03;;;;;;;5.72;3.88;;;;;;;;;;5016225;28;20025;-81
2022/09/15 04:53:29;;;;;;;6.28;4.47;;;;;;;;;;4984192;28;20025;-81
2022/09/15 04:56:10;;;;;;;6.32;3.88;;;;;;;;;;5000867;28;20570;-81
2022/09/15 04:58:43;;;;;;;5.38;3.95;;;;;;;;;;5002023;28;20033;-81
2022/09/15 05:01:12;;;;;;;5.13;3.78;;;;;;;;;;5000746;28;20035;-81
2022/09/15 05:03:37;;;;;;;5.60;3.90;;;;;;;;;;5000393;28;20021;-81
2022/09/15 05:06:08;;;;;;;5.03;3.78;;;;;;;;;;5000790;28;20094;-81
2022/09/15 05:08:33;;;;;;;5.60;4.30;;;;;;;;;;5000283;28;20116;-81
2022/09/15 05:11:04;;;;;;;4.72;3.70;;;;;;;;;;4984488;28;20131;-81
2022/09/15 05:13:29;;;;;;;4.65;3.97;;;;;;;;;;5001290;28;20384;-81
2022/09/15 05:15:55;;;;;;;8.43;4.43;;;;;;;;;;5023521;28;20048;-81
2022/09/15 05:18:20;;;;;;;5.10;3.67;;;;;;;;;;5019772;28;20075;-81
2022/09/15 05:20:45;;;;;;;5.05;4.15;;;;;;;;;;5020101;28;20029;-81
2022/09/15 05:23:11;;;;;;;5.40;4.20;;;;;;;;;;5036095;28;20028;-81
2022/09/15 05:25:37;;;;;;;5.75;3.83;;;;;;;;;;5036702;28;20120;-81
2022/09/15 05:28:04;;;;;;;6.13;3.85;;;;;;;;;;5020353;28;20036;-81
2022/09/15 05:30:29;;;;;;;11.50;4.55;;;;;;;;;;5020512;28;20569;-80
2022/09/15 05:32:55;;;;;;;9.50;4.07;;;;;;;;;;5003245;28;20132;-81
2022/09/15 05:35:22;;;;;;;13.05;4.70;;;;;;;;;;5020213;28;20052;-81
2022/09/15 05:37:48;;;;;;;9.18;4.55;;;;;;;;;;5000957;28;20029;-81
2022/09/15 05:40:14;;;;;;;6.57;4.43;;;;;;;;;;5000467;28;20033;-81
2022/09/15 05:42:39;;;;;;;12.60;4.55;;;;;;;;;;5008610;28;20053;-81
2022/09/15 05:45:05;;;;;;;6.78;4.57;;;;;;;;;;5017043;28;20563;-81
2022/09/15 05:47:31;;;;;;;6.28;4.38;;;;;;;;;;5049388;28;20112;-81
2022/09/15 05:49:56;;;;;;;8.23;4.10;;;;;;;;;;5032804;28;20111;-81
2022/09/15 05:52:21;;;;;;;7.90;4.40;;;;;;;;;;5016042;28;20438;-80
2022/09/15 05:54:47;;;;;;;6.10;4.32;;;;;;;;;;5016576;28;20044;-81
2022/09/15 05:57:13;;;;;;;6.05;3.85;;;;;;;;;;5017698;28;20379;-81
2022/09/15 05:59:40;;;;;;;6.03;4.05;;;;;;;;;;5001343;28;20037;-80
2022/09/15 06:02:07;;;;;;;7.47;4.75;;;;;;;;;;5017058;28;20116;-81
2022/09/15 06:04:33;;;;;;;6.80;4.65;;;;;;;;;;5036693;28;20115;-81
2022/09/15 06:06:58;;;;;;;5.78;4.35;;;;;;;;;;5021536;28;20094;-81
2022/09/15 06:09:24;;;;;;;7.20;4.82;;;;;;;;;;5022013;28;20102;-80
2022/09/15 06:11:51;;;;;;;7.80;4.55;;;;;;;;;;5041070;28;20430;-81
2022/09/15 06:14:16;;;;;;;12.70;4.97;;;;;;;;;;5038850;28;20052;-81
2022/09/15 06:16:42;;;;;;;10.45;4.80;;;;;;;;;;5038313;28;20040;-81
2022/09/15 06:19:07;;;;;;;6.22;4.50;;;;;;;;;;5039766;28;20412;-81
2022/09/15 06:21:34;;;;;;;7.35;4.80;;;;;;;;;;5039333;28;20055;-84
2022/09/15 06:24:02;;;;;;;8.65;5.13;;;;;;;;;;5039945;28;20037;-84
2022/09/15 06:26:27;;;;;;;7.45;4.97;;;;;;;;;;5023216;28;20029;-83
2022/09/15 06:28:57;;;;;;;7.50;5.22;;;;;;;;;;5023383;28;20036;-83
2022/09/15 06:31:24;;;;;;;9.88;5.47;;;;;;;;;;5035973;28;20037;-82
2022/09/15 06:33:53;;;;;;;7.47;4.93;;;;;;;;;;5008120;28;20136;-84
2022/09/15 06:36:19;;;;;;;7.72;5.68;;;;;;;;;;5059127;28;20498;-83
2022/09/15 06:38:45;;;;;;;7.05;5.40;;;;;;;;;;5021082;28;20037;-83
2022/09/15 06:41:11;;;;;;;11.32;5.50;;;;;;;;;;5021410;28;20430;-82
2022/09/15 06:43:36;;;;;;;6.38;5.25;;;;;;;;;;5022176;28;20049;-84
2022/09/15 06:46:11;;;;;;;8.68;5.82;;;;;;;;;;5004893;28;20044;-83
2022/09/15 06:48:37;;;;;;;8.77;5.75;;;;;;;;;;5023345;28;20380;-82
2022/09/15 06:51:03;;;;;;;10.95;5.60;;;;;;;;;;5022433;28;20032;-82
2022/09/15 06:53:29;;;;;;;8.35;5.80;;;;;;;;;;5006541;28;20131;-83
2022/09/15 06:56:01;;;;;;;9.90;5.82;;;;;;;;;;5025059;28;20487;-84
2022/09/15 06:58:27;;;;;;;;;;;;;;;;;;5025206;28;20033;-82
2022/09/15 07:03:45;;;;;;;11.93;6.45;;;;;;;;;;5037038;23;20582;-83
2022/09/15 07:06:13;;;;;;;11.85;7.03;;;;;;;;;;4997740;28;20041;-83
2022/09/15 07:08:39;;;;;;;10.13;6.20;;;;;;;;;;5001994;28;20021;-84
2022/09/15 07:11:05;;;;;;;13.20;7.07;;;;;;;;;;4987526;28;20063;-83
2022/09/15 07:13:31;;;;;;;13.70;7.38;;;;;;;;;;5024556;28;20029;-83
2022/09/15 07:15:58;;;;;;;13.35;7.53;;;;;;;;;;5006014;28;20036;-82
2022/09/15 07:18:24;;;;;;;14.40;6.72;;;;;;;;;;5005418;28;20075;-83
2022/09/15 07:20:49;;;;;;;15.63;6.63;;;;;;;;;;5005695;28;20041;-82
2022/09/15 07:23:15;;;;;;;11.52;6.80;;;;;;;;;;5006865;28;20029;-84
2022/09/15 07:25:44;;;;;;;10.93;7.05;;;;;;;;;;5037870;28;20526;-86
2022/09/15 07:28:15;;;;;;;11.52;7.78;;;;;;;;;;5004835;28;20025;-84
2022/09/15 07:30:41;;;;;;;16.08;7.82;;;;;;;;;;4988515;28;20037;-85
2022/09/15 07:33:07;;;;;;;16.83;9.38;;;;;;;;;;4987902;28;20047;-85
2022/09/15 07:35:32;;;;;;;15.60;8.85;;;;;;;;;;5004147;28;20080;-85
2022/09/15 07:37:59;;;;;;;17.13;9.68;;;;;;;;;;5001736;28;20041;-84
2022/09/15 07:40:25;;;;;;;24.27;11.23;;;;;;;;;;4997586;28;20084;-83
2022/09/15 07:42:51;;;;;;;16.80;8.48;;;;;;;;;;4994931;28;20278;-83
2022/09/15 07:45:16;;;;;;;13.90;8.75;;;;;;;;;;5013025;28;20539;-83
2022/09/15 07:47:41;;;;;;;17.02;8.18;;;;;;;;;;5012496;28;20068;-83
2022/09/15 07:50:07;;;;;;;16.15;8.20;;;;;;;;;;5014204;28;20582;-83
2022/09/15 07:52:33;;;;;;;11.20;8.05;;;;;;;;;;4981608;28;20037;-83
2022/09/15 07:54:58;;;;;;;11.30;7.07;;;;;;;;;;5014501;28;20522;-83
2022/09/15 07:57:23;;;;;;;11.95;6.78;;;;;;;;;;5014618;28;20053;-83
2022/09/15 07:59:49;;;;;;;11.90;6.18;;;;;;;;;;5013766;28;20033;-83
2022/09/15 08:02:18;;;;;;;10.75;5.88;;;;;;;;;;5013296;28;20045;-84
2022/09/15 08:04:44;;;;;;;8.48;5.15;;;;;;;;;;4984472;28;20079;-83
2022/09/15 08:07:10;;;;;;;12.63;5.55;;;;;;;;;;5001650;28;20489;-84
2022/09/15 08:09:36;;;;;;;14.30;6.38;;;;;;;;;;4984421;28;20035;-83
2022/09/15 08:12:01;;;;;;;10.27;5.40;;;;;;;;;;4984890;28;20075;-84
2022/09/15 08:14:27;;;;;;;9.82;4.88;;;;;;;;;;5017670;28;20071;-84
2022/09/15 08:16:52;;;;;;;10.20;4.70;;;;;;;;;;5016394;28;20036;-84
2022/09/15 08:19:19;;;;;;;12.85;5.35;;;;;;;;;;5001164;28;20036;-83
2022/09/15 08:21:45;;;;;;;9.38;4.72;;;;;;;;;;5001527;28;20045;-82
2022/09/15 08:24:11;;;;;;;14.43;5.57;;;;;;;;;;5033485;28;20717;-82
2022/09/15 08:26:37;;;;;;;13.05;4.57;;;;;;;;;;5017516;28;20116;-82
2022/09/15 08:29:02;;;;;;;11.13;5.50;;;;;;;;;;5001938;28;20037;-83
2022/09/15 08:31:28;;;;;;;10.88;4.90;;;;;;;;;;5003905;28;20064;-84
2022/09/15 08:33:53;;;;;;;10.13;4.32;;;;;;;;;;5003140;28;20037;-84
2022/09/15 08:36:19;;;;;;;8.85;4.38;;;;;;;;;;5003097;28;20063;-83
2022/09/15 08:38:47;;;;;;;10.40;4.25;;;;;;;;;;4982655;28;20033;-83
2022/09/15 08:41:26;;;;;;;9.85;4.18;;;;;;;;;;4984154;28;20045;-83
2022/09/15 08:44:00;;;;;;;9.00;4.25;;;;;;;;;;5021197;28;20483;-84
2022/09/15 08:46:37;;;;;;;10.15;4.45;;;;;;;;;;5015545;28;20037;-83
2022/09/15 08:49:13;;;;;;;9.48;4.30;;;;;;;;;;5003949;28;20052;-83
2022/09/15 08:51:43;;;;;;;6.03;4.07;;;;;;;;;;5002940;28;20033;-83
2022/09/15 08:54:19;;;;;;;9.43;4.28;;;;;;;;;;5003183;28;20124;-82
2022/09/15 08:56:45;;;;;;;7.90;4.13;;;;;;;;;;5020794;28;20041;-83
2022/09/15 08:59:14;;;;;;;8.63;4.28;;;;;;;;;;5001216;28;20083;-83
2022/09/15 09:02:22;;;;;;;4.15;3.05;;;;;;;;;;4980414;28;20046;-84
2022/09/15 09:04:58;;;;;;;8.73;3.80;;;;;;;;;;5005784;28;20099;-83
2022/09/15 09:07:45;;;;;;;9.23;3.45;;;;;;;;;;5000085;28;20041;-83
2022/09/15 09:10:34;;;;;;;8.05;3.08;;;;;;;;;;5018009;28;20060;-83
2022/09/15 09:13:18;;;;;;;7.20;3.63;;;;;;;;;;5020255;28;20040;-83
2022/09/15 09:16:05;;;;;;;7.40;3.40;;;;;;;;;;5035679;28;20025;-83
2022/09/15 09:18:51;;;;;;;6.88;2.65;;;;;;;;;;5036858;28;20496;-84
2022/09/15 09:21:22;;;;;;;5.28;2.42;;;;;;;;;;5006768;28;20033;-84
2022/09/15 09:23:53;;;;;;;6.88;2.40;;;;;;;;;;5005297;28;20029;-83
2022/09/15 09:26:19;;;;;;;5.85;2.60;;;;;;;;;;4989007;28;20086;-83
2022/09/15 09:28:46;;;;;;;5.18;2.55;;;;;;;;;;5004308;28;20115;-83
2022/09/15 09:31:17;;;;;;;8.52;2.85;;;;;;;;;;5009562;28;20034;-83
2022/09/15 09:33:57;;;;;;;11.48;3.47;;;;;;;;;;4984686;28;20033;-84
2022/09/15 09:36:23;;;;;;;8.15;3.53;;;;;;;;;;5017692;28;20041;-83
2022/09/15 09:38:48;;;;;;;6.68;3.72;;;;;;;;;;4989932;28;20140;-84
2022/09/15 09:41:25;;;;;;;4.90;2.60;;;;;;;;;;5005656;28;20045;-83
2022/09/15 09:43:51;;;;;;;6.50;2.80;;;;;;;;;;4990617;28;20029;-83
2022/09/15 09:46:17;;;;;;;6.53;3.50;;;;;;;;;;5006084;28;20037;-82
2022/09/15 09:48:47;;;;;;;7.18;3.03;;;;;;;;;;5005705;28;20032;-82
2022/09/15 09:51:28;;;;;;;5.38;2.50;;;;;;;;;;4982289;28;20484;-83
2022/09/15 09:53:53;;;;;;;6.28;2.95;;;;;;;;;;4985627;28;20037;-83
2022/09/15 09:56:25;;;;;;;4.55;2.35;;;;;;;;;;5018979;28;20551;-83
2022/09/15 09:58:51;;;;;;;7.80;3.10;;;;;;;;;;4985927;28;20056;-83
2022/09/15 10:01:18;;;;;;;6.10;2.80;;;;;;;;;;4985703;28;20041;-83
2022/09/15 10:03:47;;;;;;;6.07;2.75;;;;;;;;;;5002618;28;20041;-83
2022/09/15 10:06:16;;;;;;;5.05;3.00;;;;;;;;;;4996024;28;20069;-84
2022/09/15 10:08:56;;;;;;;9.18;2.90;;;;;;;;;;5000963;28;20063;-82
2022/09/15 10:11:21;;;;;;;8.07;2.90;;;;;;;;;;5001310;28;20041;-82
2022/09/15 10:13:53;;;;;;;7.72;2.60;;;;;;;;;;5000203;28;20565;-82
2022/09/15 10:16:19;;;;;;;6.82;3.03;;;;;;;;;;4998848;28;20037;-83
2022/09/15 10:18:44;;;;;;;7.60;2.50;;;;;;;;;;5000301;28;20036;-83
2022/09/15 10:21:11;;;;;;;6.32;2.38;;;;;;;;;;4999972;28;20513;-82
2022/09/15 10:23:36;;;;;;;6.72;2.58;;;;;;;;;;5000210;28;20040;-82
2022/09/15 10:26:14;;;;;;;6.65;2.50;;;;;;;;;;5001681;28;20404;-79
2022/09/15 10:28:40;;;;;;;9.48;2.70;;;;;;;;;;5032965;28;20029;-82
2022/09/15 10:31:12;;;;;;;9.85;2.90;;;;;;;;;;5009318;28;20040;-81
2022/09/15 10:33:43;;;;;;;8.40;3.85;;;;;;;;;;5019897;28;20033;-82
2022/09/15 10:36:29;;;;;;;6.90;2.63;;;;;;;;;;5019694;28;20064;-80
2022/09/15 10:39:34;;;;;;;6.32;2.30;;;;;;;;;;4985527;28;20037;-81
2022/09/15 10:42:15;;;;;;;8.18;2.00;;;;;;;;;;4975721;28;20455;-80
2022/09/15 10:44:59;;;;;;;7.53;2.47;;;;;;;;;;4981706;28;20072;-81
2022/09/15 10:47:32;;;;;;;8.18;2.90;;;;;;;;;;5016735;28;20528;-82
2022/09/15 10:50:30;;;;;;;6.07;2.60;;;;;;;;;;4999036;28;20134;-82
2022/09/15 10:53:33;;;;;;;6.78;2.22;;;;;;;;;;5032187;28;20033;-81
2022/09/15 10:56:05;;;;;;;10.63;2.38;;;;;;;;;;4999134;28;20389;-81
2022/09/15 10:58:46;;;;;;;23.00;3.90;;;;;;;;;;5016268;28;20033;-81
2022/09/15 11:01:31;;;;;;;10.35;3.03;;;;;;;;;;4999209;28;20033;-81
2022/09/15 11:04:38;;;;;;;10.90;2.78;;;;;;;;;;4999329;28;20116;-80
2022/09/15 11:07:22;;;;;;;7.25;2.80;;;;;;;;;;5001771;28;20064;-81
2022/09/15 11:10:35;;;;;;;12.25;3.17;;;;;;;;;;4999056;28;20026;-81
2022/09/15 11:13:12;;;;;;;8.90;2.53;;;;;;;;;;4985267;28;20046;-81
2022/09/15 11:16:15;;;;;;;9.32;2.85;;;;;;;;;;4999053;28;20067;-81
2022/09/15 11:18:44;;;;;;;13.55;2.90;;;;;;;;;;5000630;28;20053;-81
2022/09/15 11:21:27;;;;;;;7.78;2.20;;;;;;;;;;5033434;28;20044;-80
2022/09/15 11:24:24;;;;;;;8.60;2.20;;;;;;;;;;5015310;28;20065;-81
2022/09/15 11:26:59;;;;;;;6.93;2.83;;;;;;;;;;4998687;28;20029;-81
2022/09/15 11:29:32;;;;;;;6.43;2.55;;;;;;;;;;4983684;28;20065;-82
2022/09/15 11:32:10;;;;;;;8.30;2.63;;;;;;;;;;5032263;28;20466;-80
2022/09/15 11:35:29;;;;;;;8.50;2.72;;;;;;;;;;5002397;28;20124;-81
2022/09/15 11:38:03;;;;;;;8.35;3.10;;;;;;;;;;4974309;28;20033;-80
2022/09/15 11:40:35;;;;;;;5.97;2.00;;;;;;;;;;4983328;28;20061;-79
2022/09/15 11:43:17;;;;;;;;;;;;;;;;;;4999180;28;20457;-80
2022/09/15 11:45:46;;;;;;;6.45;2.70;;;;;;;;;;5015059;28;20330;-81
2022/09/15 11:48:36;;;;;;;9.65;2.20;;;;;;;;;;4982383;28;20040;-81
2022/09/15 11:51:04;;;;;;;7.75;2.28;;;;;;;;;;5006770;28;20108;-79
2022/09/15 11:53:36;;;;;;;7.97;2.60;;;;;;;;;;5017878;28;20131;-80
2022/09/15 11:56:21;;;;;;;5.65;2.40;;;;;;;;;;5001707;28;20515;-81
2022/09/15 11:59:28;;;;;;;10.50;2.45;;;;;;;;;;5001841;28;20036;-79
2022/09/15 12:02:15;;;;;;;7.63;2.28;;;;;;;;;;4989973;28;20061;-80
2022/09/15 12:05:14;;;;;;;9.63;2.35;;;;;;;;;;5052244;28;20048;-79
2022/09/15 12:07:47;;;;;;;7.10;1.98;;;;;;;;;;4986750;28;20025;-79
2022/09/15 12:10:17;;;;;;;11.43;3.05;;;;;;;;;;5018177;28;20431;-79
2022/09/15 12:12:43;;;;;;;7.00;1.67;;;;;;;;;;5018821;28;20478;-79
2022/09/15 12:15:19;;;;;;;9.60;2.10;;;;;;;;;;5018454;28;20062;-79
2022/09/15 12:18:05;;;;;;;6.40;2.25;;;;;;;;;;5003988;28;20028;-80
2022/09/15 12:20:43;;;;;;;6.60;1.85;;;;;;;;;;5021847;28;20037;-79
2022/09/15 12:23:10;;;;;;;10.18;2.72;;;;;;;;;;5002475;28;20074;-79
2022/09/15 12:26:15;;;;;;;11.60;2.20;;;;;;;;;;5052320;28;20444;-79
2022/09/15 12:29:01;;;;;;;8.75;2.17;;;;;;;;;;5022302;28;20123;-79
2022/09/15 12:31:36;;;;;;;5.13;1.65;;;;;;;;;;5017130;28;20056;-80
2022/09/15 12:34:24;;;;;;;6.97;1.95;;;;;;;;;;5001890;28;20037;-79
2022/09/15 12:36:53;;;;;;;7.95;2.00;;;;;;;;;;5016188;28;20545;-80
2022/09/15 12:39:28;;;;;;;4.70;1.60;;;;;;;;;;4998289;28;20044;-79
2022/09/15 12:42:00;;;;;;;7.70;2.13;;;;;;;;;;5014670;28;20038;-78
2022/09/15 12:44:36;;;;;;;3.72;1.50;;;;;;;;;;5014199;28;20029;-80
2022/09/15 12:47:02;;;;;;;10.27;2.00;;;;;;;;;;4982650;28;20049;-80
2022/09/15 12:49:41;;;;;;;6.68;2.33;;;;;;;;;;4998786;28;20583;-79
2022/09/15 12:52:06;;;;;;;6.28;1.70;;;;;;;;;;5011645;28;20029;-80
2022/09/15 12:54:33;;;;;;;5.53;1.83;;;;;;;;;;5001022;28;20063;-80
2022/09/15 12:56:58;;;;;;;4.75;1.65;;;;;;;;;;5034606;28;20044;-80
2022/09/15 12:59:24;;;;;;;4.85;1.77;;;;;;;;;;5017266;28;20115;-80
2022/09/15 13:01:51;;;;;;;5.05;1.40;;;;;;;;;;5033155;28;20049;-79
2022/09/15 13:04:44;;;;;;;7.13;1.83;;;;;;;;;;5034212;28;20065;-80
2022/09/15 13:07:16;;;;;;;5.70;1.83;;;;;;;;;;5027075;28;20122;-79
2022/09/15 13:09:55;;;;;;;3.80;1.40;;;;;;;;;;5052032;28;20044;-79
2022/09/15 13:12:20;;;;;;;3.78;1.35;;;;;;;;;;5034617;28;20040;-80
2022/09/15 13:14:50;;;;;;;4.40;1.80;;;;;;;;;;5037899;28;20044;-81
2022/09/15 13:17:21;;;;;;;3.92;1.83;;;;;;;;;;5037442;28;20124;-80
2022/09/15 13:19:48;;;;;;;4.75;1.90;;;;;;;;;;5037138;28;20040;-80
2022/09/15 13:22:18;;;;;;;4.50;1.48;;;;;;;;;;5036977;28;20072;-79
2022/09/15 13:25:14;;;;;;;7.68;1.77;;;;;;;;;;5037658;28;20037;-80
2022/09/15 13:27:44;;;;;;;3.53;1.55;;;;;;;;;;5039948;28;20056;-80
2022/09/15 13:30:49;;;;;;;4.25;1.30;;;;;;;;;;5018013;28;20040;-80
2022/09/15 13:33:27;;;;;;;2.85;1.30;;;;;;;;;;4958305;28;20045;-80
2022/09/15 13:36:29;;;;;;;5.95;1.60;;;;;;;;;;5017636;28;20034;-79
2022/09/15 13:39:19;;;;;;;3.55;1.75;;;;;;;;;;5001435;28;20124;-80
2022/09/15 13:41:51;;;;;;;4.18;1.58;;;;;;;;;;5018002;28;20060;-80
2022/09/15 13:44:41;;;;;;;3.95;1.45;;;;;;;;;;5032848;28;20029;-81
2022/09/15 13:47:25;;;;;;;5.43;1.90;;;;;;;;;;5033501;28;20072;-80
2022/09/15 13:50:19;;;;;;;3.05;1.70;;;;;;;;;;5029396;28;20041;-82
2022/09/15 13:53:02;;;;;;;4.18;1.48;;;;;;;;;;5004020;28;20040;-80
2022/09/15 13:55:31;;;;;;;4.45;1.55;;;;;;;;;;5056073;28;20033;-80
2022/09/15 13:57:57;;;;;;;9.27;2.42;;;;;;;;;;5038641;28;20033;-79
2022/09/15 14:00:28;;;;;;;6.47;1.65;;;;;;;;;;5020464;28;20025;-81
2022/09/15 14:02:56;;;;;;;6.45;1.52;;;;;;;;;;5036589;28;20072;-80
2022/09/15 14:05:22;;;;;;;5.53;1.90;;;;;;;;;;5003579;28;20617;-80
2022/09/15 14:07:56;;;;;;;8.52;1.85;;;;;;;;;;5035282;28;20514;-80
2022/09/15 14:10:27;;;;;;;4.38;1.90;;;;;;;;;;5001497;28;20075;-80
2022/09/15 14:12:52;;;;;;;4.13;1.35;;;;;;;;;;5003334;28;20029;-80
2022/09/15 14:15:21;;;;;;;4.63;1.40;;;;;;;;;;5036330;28;20106;-80
2022/09/15 14:17:46;;;;;;;5.90;1.90;;;;;;;;;;5019876;28;20447;-80
2022/09/15 14:20:32;;;;;;;4.03;1.95;;;;;;;;;;5035295;28;20116;-79
2022/09/15 14:22:58;;;;;;;3.45;1.30;;;;;;;;;;5020116;28;20029;-80
2022/09/15 14:25:23;;;;;;;3.72;1.33;;;;;;;;;;5036038;28;20037;-80
2022/09/15 14:27:50;;;;;;;4.43;1.45;;;;;;;;;;5019634;28;20040;-80
2022/09/15 14:30:28;;;;;;;3.00;1.40;;;;;;;;;;5035824;28;20029;-79
2022/09/15 14:32:55;;;;;;;2.65;1.10;;;;;;;;;;5003285;28;20048;-80
2022/09/15 14:35:23;;;;;;;4.90;1.38;;;;;;;;;;5019709;28;20047;-80
2022/09/15 14:37:53;;;;;;;3.88;1.10;;;;;;;;;;5002861;28;20029;-80
2022/09/15 14:40:26;;;;;;;4.10;1.35;;;;;;;;;;5020414;28;20040;-80
2022/09/15 14:42:51;;;;;;;5.80;1.38;;;;;;;;;;5004087;28;20047;-80
2022/09/15 14:45:22;;;;;;;4.57;1.35;;;;;;;;;;5002999;28;20041;-80
2022/09/15 14:48:00;;;;;;;5.75;1.23;;;;;;;;;;5019369;28;20079;-80
2022/09/15 14:50:25;;;;;;;8.63;1.60;;;;;;;;;;5000275;28;20112;-79
2022/09/15 14:53:05;;;;;;;4.55;1.02;;;;;;;;;;4999668;28;20530;-79
2022/09/15 14:56:04;;;;;;;5.22;1.45;;;;;;;;;;5032095;28;20041;-79
2022/09/15 14:58:46;;;;;;;10.68;1.50;;;;;;;;;;4995152;28;20136;-80
2022/09/15 15:01:18;;;;;;;7.90;1.38;;;;;;;;;;5015983;28;20037;-79
2022/09/15 15:04:09;;;;;;;4.97;1.33;;;;;;;;;;5000000;28;20048;-78
2022/09/15 15:06:42;;;;;;;4.85;1.25;;;;;;;;;;5015893;28;20037;-79
2022/09/15 15:09:16;;;;;;;9.77;2.00;;;;;;;;;;4999588;28;20033;-79